KMCO/MCO METAR and TAF weather

Enter ICAO airport designator
Station Type Date Time Source
KMCO METAR 2022/11/26 09:53 UTC NOAA

KMCO 260953Z 35004KT 8SM FEW006 OVC014 22/21 A3005 RMK AO2 SLP175 OVC V BKN T02220211 $


Station Type Date Time Source
KMCO Decoded METAR 2022/11/26 09:53 UTC NOAA

ORLANDO INTERNATIONAL AIRPORT , FL, United States (KMCO) 28-25N 81-20W 29M
Nov 26, 2022 - 04:53 AM EST / 2022.11.26 0953 UTC
Wind: from the N (350 degrees) at 5 MPH (4 KT):0
Visibility: 8 mile(s):0
Sky conditions: overcast
Temperature: 72.0 F (22.2 C)
Dew Point: 70.0 F (21.1 C)
Relative Humidity: 93%
Pressure (altimeter): 30.05 in. Hg (1017 hPa)
ob: KMCO 260953Z 35004KT 8SM FEW006 OVC014 22/21 A3005 RMK AO2 SLP175 OVC V BKN T02220211
cycle: 10

Station Type Date Time Source
KMCO TAF 2022/11/26 10:54 UTC NOAA

TAF
AMD KMCO 260951Z 2610/2712 36004KT P6SM SCT006 OVC015
TEMPO 2610/2613 4SM MIFG BR BKN005
FM261500 08007KT P6SM SCT015 BKN050
TEMPO 2615/2618 BKN015
FM261800 11008KT P6SM SCT030
FM270200 11004KT P6SM SCT030

Example: see airport list